sensor_id;sensor_type;location;lat;lon;timestamp;P1;durP1;ratioP1;P2;durP2;ratioP2
27804;SDS011;15183;51.350;11.102;2023-07-08T00:01:17;2.25;;;1.50;;
27804;SDS011;15183;51.350;11.102;2023-07-08T00:03:46;2.95;;;1.55;;
27804;SDS011;15183;51.350;11.102;2023-07-08T00:06:16;1.98;;;1.50;;
27804;SDS011;15183;51.350;11.102;2023-07-08T00:08:52;3.05;;;1.77;;
27804;SDS011;15183;51.350;11.102;2023-07-08T00:11:18;4.22;;;1.77;;
27804;SDS011;15183;51.350;11.102;2023-07-08T00:13:45;1.90;;;1.52;;
27804;SDS011;15183;51.350;11.102;2023-07-08T00:16:12;5.97;;;1.67;;
27804;SDS011;15183;51.350;11.102;2023-07-08T00:18:42;2.42;;;1.48;;
27804;SDS011;15183;51.350;11.102;2023-07-08T00:21:12;1.67;;;1.55;;
27804;SDS011;15183;51.350;11.102;2023-07-08T00:23:43;1.63;;;1.35;;
27804;SDS011;15183;51.350;11.102;2023-07-08T00:26:15;3.38;;;1.52;;
27804;SDS011;15183;51.350;11.102;2023-07-08T00:28:52;3.13;;;1.58;;
27804;SDS011;15183;51.350;11.102;2023-07-08T00:31:19;1.50;;;1.40;;
27804;SDS011;15183;51.350;11.102;2023-07-08T00:33:49;1.98;;;1.42;;
27804;SDS011;15183;51.350;11.102;2023-07-08T00:36:16;2.40;;;1.48;;
27804;SDS011;15183;51.350;11.102;2023-07-08T00:38:43;1.90;;;1.52;;
27804;SDS011;15183;51.350;11.102;2023-07-08T00:41:12;2.13;;;1.52;;
27804;SDS011;15183;51.350;11.102;2023-07-08T00:43:54;2.20;;;1.33;;
27804;SDS011;15183;51.350;11.102;2023-07-08T00:49:17;1.40;;;1.30;;
27804;SDS011;15183;51.350;11.102;2023-07-08T00:51:48;2.45;;;1.50;;
27804;SDS011;15183;51.350;11.102;2023-07-08T00:54:15;2.92;;;1.67;;
27804;SDS011;15183;51.350;11.102;2023-07-08T00:59:31;2.10;;;1.25;;
27804;SDS011;15183;51.350;11.102;2023-07-08T01:02:12;3.30;;;1.55;;
27804;SDS011;15183;51.350;11.102;2023-07-08T01:04:46;2.33;;;1.48;;
27804;SDS011;15183;51.350;11.102;2023-07-08T01:07:24;1.48;;;1.38;;
27804;SDS011;15183;51.350;11.102;2023-07-08T01:09:53;3.55;;;1.63;;
27804;SDS011;15183;51.350;11.102;2023-07-08T01:12:29;1.80;;;1.47;;
27804;SDS011;15183;51.350;11.102;2023-07-08T01:15:01;2.53;;;1.60;;
27804;SDS011;15183;51.350;11.102;2023-07-08T01:17:29;2.17;;;1.48;;
27804;SDS011;15183;51.350;11.102;2023-07-08T01:19:59;3.92;;;1.58;;
27804;SDS011;15183;51.350;11.102;2023-07-08T01:22:32;2.40;;;1.80;;
27804;SDS011;15183;51.350;11.102;2023-07-08T01:25:01;2.72;;;1.60;;
27804;SDS011;15183;51.350;11.102;2023-07-08T01:27:30;3.55;;;1.70;;
27804;SDS011;15183;51.350;11.102;2023-07-08T01:30:01;3.63;;;1.70;;
27804;SDS011;15183;51.350;11.102;2023-07-08T01:32:30;2.22;;;1.63;;
27804;SDS011;15183;51.350;11.102;2023-07-08T01:35:04;2.83;;;1.77;;
27804;SDS011;15183;51.350;11.102;2023-07-08T01:37:39;3.88;;;1.70;;
27804;SDS011;15183;51.350;11.102;2023-07-08T01:42:45;1.65;;;1.40;;
27804;SDS011;15183;51.350;11.102;2023-07-08T01:45:12;3.42;;;1.70;;
27804;SDS011;15183;51.350;11.102;2023-07-08T01:47:42;2.70;;;1.63;;
27804;SDS011;15183;51.350;11.102;2023-07-08T01:50:23;2.67;;;1.42;;
27804;SDS011;15183;51.350;11.102;2023-07-08T01:52:52;3.35;;;1.30;;
27804;SDS011;15183;51.350;11.102;2023-07-08T01:55:22;2.95;;;1.63;;
27804;SDS011;15183;51.350;11.102;2023-07-08T01:57:51;2.03;;;1.50;;
27804;SDS011;15183;51.350;11.102;2023-07-08T02:00:21;2.38;;;1.50;;
27804;SDS011;15183;51.350;11.102;2023-07-08T02:02:48;2.35;;;1.90;;
27804;SDS011;15183;51.350;11.102;2023-07-08T02:05:16;3.03;;;1.77;;
27804;SDS011;15183;51.350;11.102;2023-07-08T02:07:42;2.00;;;1.50;;
27804;SDS011;15183;51.350;11.102;2023-07-08T02:10:09;1.75;;;1.48;;
27804;SDS011;15183;51.350;11.102;2023-07-08T02:12:35;1.58;;;1.45;;
27804;SDS011;15183;51.350;11.102;2023-07-08T02:15:02;1.75;;;1.50;;
27804;SDS011;15183;51.350;11.102;2023-07-08T02:17:30;6.35;;;2.63;;
27804;SDS011;15183;51.350;11.102;2023-07-08T02:19:56;3.28;;;1.55;;
27804;SDS011;15183;51.350;11.102;2023-07-08T02:22:23;2.25;;;1.50;;
27804;SDS011;15183;51.350;11.102;2023-07-08T02:24:49;2.05;;;1.58;;
27804;SDS011;15183;51.350;11.102;2023-07-08T02:27:16;4.57;;;1.70;;
27804;SDS011;15183;51.350;11.102;2023-07-08T02:29:42;3.75;;;1.67;;
27804;SDS011;15183;51.350;11.102;2023-07-08T02:32:08;2.15;;;1.40;;
27804;SDS011;15183;51.350;11.102;2023-07-08T02:34:36;2.10;;;1.73;;
27804;SDS011;15183;51.350;11.102;2023-07-08T02:37:03;2.72;;;1.40;;
27804;SDS011;15183;51.350;11.102;2023-07-08T02:39:30;2.97;;;1.95;;
27804;SDS011;15183;51.350;11.102;2023-07-08T02:41:56;1.65;;;1.55;;
27804;SDS011;15183;51.350;11.102;2023-07-08T02:44:23;3.00;;;1.42;;
27804;SDS011;15183;51.350;11.102;2023-07-08T02:46:49;1.58;;;1.40;;
27804;SDS011;15183;51.350;11.102;2023-07-08T02:49:16;2.47;;;1.55;;
27804;SDS011;15183;51.350;11.102;2023-07-08T02:51:42;2.53;;;1.42;;
27804;SDS011;15183;51.350;11.102;2023-07-08T02:54:08;1.55;;;1.45;;
27804;SDS011;15183;51.350;11.102;2023-07-08T02:56:36;1.90;;;1.70;;
27804;SDS011;15183;51.350;11.102;2023-07-08T02:59:02;2.08;;;1.75;;
27804;SDS011;15183;51.350;11.102;2023-07-08T03:01:29;2.70;;;1.65;;
27804;SDS011;15183;51.350;11.102;2023-07-08T03:03:56;5.10;;;1.65;;
27804;SDS011;15183;51.350;11.102;2023-07-08T03:06:25;2.28;;;1.80;;
27804;SDS011;15183;51.350;11.102;2023-07-08T03:08:52;2.25;;;1.42;;
27804;SDS011;15183;51.350;11.102;2023-07-08T03:11:18;2.00;;;1.50;;
27804;SDS011;15183;51.350;11.102;2023-07-08T03:13:45;3.65;;;1.70;;
27804;SDS011;15183;51.350;11.102;2023-07-08T03:16:11;2.55;;;1.70;;
27804;SDS011;15183;51.350;11.102;2023-07-08T03:18:38;2.88;;;1.63;;
27804;SDS011;15183;51.350;11.102;2023-07-08T03:21:12;2.45;;;1.75;;
27804;SDS011;15183;51.350;11.102;2023-07-08T03:23:41;2.58;;;1.63;;
27804;SDS011;15183;51.350;11.102;2023-07-08T03:26:09;4.10;;;1.90;;
27804;SDS011;15183;51.350;11.102;2023-07-08T03:28:45;5.00;;;1.60;;
27804;SDS011;15183;51.350;11.102;2023-07-08T03:31:13;6.05;;;1.80;;
27804;SDS011;15183;51.350;11.102;2023-07-08T03:33:40;1.95;;;1.77;;
27804;SDS011;15183;51.350;11.102;2023-07-08T03:36:11;1.42;;;1.33;;
27804;SDS011;15183;51.350;11.102;2023-07-08T03:38:51;2.67;;;1.35;;
27804;SDS011;15183;51.350;11.102;2023-07-08T03:41:19;1.98;;;1.73;;
27804;SDS011;15183;51.350;11.102;2023-07-08T03:43:46;3.53;;;1.88;;
27804;SDS011;15183;51.350;11.102;2023-07-08T03:46:13;3.85;;;1.70;;
27804;SDS011;15183;51.350;11.102;2023-07-08T03:48:43;1.50;;;1.30;;
27804;SDS011;15183;51.350;11.102;2023-07-08T03:51:12;2.28;;;1.63;;
27804;SDS011;15183;51.350;11.102;2023-07-08T03:54:02;2.72;;;1.73;;
27804;SDS011;15183;51.350;11.102;2023-07-08T03:56:29;5.00;;;1.98;;
27804;SDS011;15183;51.350;11.102;2023-07-08T03:58:56;2.47;;;1.80;;
27804;SDS011;15183;51.350;11.102;2023-07-08T04:01:23;3.63;;;1.83;;
27804;SDS011;15183;51.350;11.102;2023-07-08T04:03:51;2.15;;;1.70;;
27804;SDS011;15183;51.350;11.102;2023-07-08T04:06:20;3.15;;;1.92;;
27804;SDS011;15183;51.350;11.102;2023-07-08T04:08:47;2.60;;;1.80;;
27804;SDS011;15183;51.350;11.102;2023-07-08T04:11:16;2.72;;;1.50;;
27804;SDS011;15183;51.350;11.102;2023-07-08T04:13:47;1.95;;;1.65;;
27804;SDS011;15183;51.350;11.102;2023-07-08T04:16:18;4.03;;;1.42;;
27804;SDS011;15183;51.350;11.102;2023-07-08T04:18:50;2.33;;;1.55;;
27804;SDS011;15183;51.350;11.102;2023-07-08T04:21:19;1.95;;;1.60;;
27804;SDS011;15183;51.350;11.102;2023-07-08T04:23:47;4.32;;;1.48;;
27804;SDS011;15183;51.350;11.102;2023-07-08T04:26:13;6.38;;;1.98;;
27804;SDS011;15183;51.350;11.102;2023-07-08T04:28:41;4.68;;;1.75;;
27804;SDS011;15183;51.350;11.102;2023-07-08T04:31:08;3.08;;;2.08;;
27804;SDS011;15183;51.350;11.102;2023-07-08T04:33:34;6.90;;;1.95;;
27804;SDS011;15183;51.350;11.102;2023-07-08T04:36:01;5.00;;;2.60;;
27804;SDS011;15183;51.350;11.102;2023-07-08T04:38:28;2.13;;;1.80;;
27804;SDS011;15183;51.350;11.102;2023-07-08T04:40:55;3.55;;;1.77;;
27804;SDS011;15183;51.350;11.102;2023-07-08T04:43:22;3.42;;;1.75;;
27804;SDS011;15183;51.350;11.102;2023-07-08T04:45:55;1.95;;;1.55;;
27804;SDS011;15183;51.350;11.102;2023-07-08T04:48:22;6.35;;;2.25;;
27804;SDS011;15183;51.350;11.102;2023-07-08T04:50:50;2.67;;;1.80;;
27804;SDS011;15183;51.350;11.102;2023-07-08T04:53:18;2.55;;;1.58;;
27804;SDS011;15183;51.350;11.102;2023-07-08T04:55:49;4.05;;;1.58;;
27804;SDS011;15183;51.350;11.102;2023-07-08T04:58:20;3.95;;;1.73;;
27804;SDS011;15183;51.350;11.102;2023-07-08T05:00:47;1.67;;;1.40;;
27804;SDS011;15183;51.350;11.102;2023-07-08T05:03:13;5.00;;;1.70;;
27804;SDS011;15183;51.350;11.102;2023-07-08T05:05:40;1.95;;;1.80;;
27804;SDS011;15183;51.350;11.102;2023-07-08T05:08:07;2.58;;;1.88;;
27804;SDS011;15183;51.350;11.102;2023-07-08T05:10:33;3.92;;;2.10;;
27804;SDS011;15183;51.350;11.102;2023-07-08T05:13:00;1.90;;;1.70;;
27804;SDS011;15183;51.350;11.102;2023-07-08T05:15:26;2.55;;;1.88;;
27804;SDS011;15183;51.350;11.102;2023-07-08T05:17:53;4.78;;;1.67;;
27804;SDS011;15183;51.350;11.102;2023-07-08T05:20:19;2.25;;;1.83;;
27804;SDS011;15183;51.350;11.102;2023-07-08T05:22:46;2.75;;;2.10;;
27804;SDS011;15183;51.350;11.102;2023-07-08T05:25:13;4.57;;;1.85;;
27804;SDS011;15183;51.350;11.102;2023-07-08T05:27:40;3.75;;;2.10;;
27804;SDS011;15183;51.350;11.102;2023-07-08T05:30:08;2.17;;;1.70;;
27804;SDS011;15183;51.350;11.102;2023-07-08T05:32:41;5.57;;;1.98;;
27804;SDS011;15183;51.350;11.102;2023-07-08T05:35:08;3.10;;;2.08;;
27804;SDS011;15183;51.350;11.102;2023-07-08T05:37:37;7.93;;;2.00;;
27804;SDS011;15183;51.350;11.102;2023-07-08T05:40:06;3.95;;;1.63;;
27804;SDS011;15183;51.350;11.102;2023-07-08T05:42:35;3.95;;;1.98;;
27804;SDS011;15183;51.350;11.102;2023-07-08T05:45:02;2.53;;;2.22;;
27804;SDS011;15183;51.350;11.102;2023-07-08T05:47:32;2.67;;;2.17;;
27804;SDS011;15183;51.350;11.102;2023-07-08T05:49:58;5.28;;;3.35;;
27804;SDS011;15183;51.350;11.102;2023-07-08T05:52:25;3.15;;;2.58;;
27804;SDS011;15183;51.350;11.102;2023-07-08T05:54:51;3.80;;;2.28;;
27804;SDS011;15183;51.350;11.102;2023-07-08T05:57:17;5.72;;;3.13;;
27804;SDS011;15183;51.350;11.102;2023-07-08T05:59:44;4.68;;;3.30;;
27804;SDS011;15183;51.350;11.102;2023-07-08T06:02:11;5.13;;;2.80;;
27804;SDS011;15183;51.350;11.102;2023-07-08T06:04:39;3.83;;;2.08;;
27804;SDS011;15183;51.350;11.102;2023-07-08T06:07:05;2.63;;;2.13;;
27804;SDS011;15183;51.350;11.102;2023-07-08T06:09:32;4.18;;;2.08;;
27804;SDS011;15183;51.350;11.102;2023-07-08T06:11:59;3.05;;;2.10;;
27804;SDS011;15183;51.350;11.102;2023-07-08T06:14:26;6.43;;;3.13;;
27804;SDS011;15183;51.350;11.102;2023-07-08T06:16:53;3.45;;;2.30;;
27804;SDS011;15183;51.350;11.102;2023-07-08T06:19:21;3.17;;;2.40;;
27804;SDS011;15183;51.350;11.102;2023-07-08T06:21:47;4.47;;;2.70;;
27804;SDS011;15183;51.350;11.102;2023-07-08T06:24:13;4.03;;;3.05;;
27804;SDS011;15183;51.350;11.102;2023-07-08T06:26:40;5.32;;;2.53;;
27804;SDS011;15183;51.350;11.102;2023-07-08T06:29:06;2.95;;;2.75;;
27804;SDS011;15183;51.350;11.102;2023-07-08T06:31:33;6.78;;;2.58;;
27804;SDS011;15183;51.350;11.102;2023-07-08T06:34:00;4.75;;;2.65;;
27804;SDS011;15183;51.350;11.102;2023-07-08T06:36:27;2.83;;;2.47;;
27804;SDS011;15183;51.350;11.102;2023-07-08T06:38:53;2.90;;;2.20;;
27804;SDS011;15183;51.350;11.102;2023-07-08T06:41:20;3.60;;;2.50;;
27804;SDS011;15183;51.350;11.102;2023-07-08T06:43:46;3.03;;;2.45;;
27804;SDS011;15183;51.350;11.102;2023-07-08T06:46:13;4.97;;;2.10;;
27804;SDS011;15183;51.350;11.102;2023-07-08T06:48:40;6.15;;;2.60;;
27804;SDS011;15183;51.350;11.102;2023-07-08T06:51:06;2.88;;;2.60;;
27804;SDS011;15183;51.350;11.102;2023-07-08T06:53:33;3.22;;;2.60;;
27804;SDS011;15183;51.350;11.102;2023-07-08T06:56:00;2.95;;;2.47;;
27804;SDS011;15183;51.350;11.102;2023-07-08T06:58:27;3.97;;;3.00;;
27804;SDS011;15183;51.350;11.102;2023-07-08T07:00:54;3.13;;;2.42;;
27804;SDS011;15183;51.350;11.102;2023-07-08T07:03:20;4.43;;;3.30;;
27804;SDS011;15183;51.350;11.102;2023-07-08T07:05:47;7.32;;;3.25;;
27804;SDS011;15183;51.350;11.102;2023-07-08T07:08:13;7.20;;;2.97;;
27804;SDS011;15183;51.350;11.102;2023-07-08T07:10:40;6.22;;;2.90;;
27804;SDS011;15183;51.350;11.102;2023-07-08T07:13:06;7.90;;;3.53;;
27804;SDS011;15183;51.350;11.102;2023-07-08T07:15:32;4.45;;;2.78;;
27804;SDS011;15183;51.350;11.102;2023-07-08T07:17:59;3.35;;;2.97;;
27804;SDS011;15183;51.350;11.102;2023-07-08T07:20:26;3.67;;;2.75;;
27804;SDS011;15183;51.350;11.102;2023-07-08T07:22:52;3.10;;;2.72;;
27804;SDS011;15183;51.350;11.102;2023-07-08T07:25:19;3.55;;;3.25;;
27804;SDS011;15183;51.350;11.102;2023-07-08T07:27:46;3.45;;;2.70;;
27804;SDS011;15183;51.350;11.102;2023-07-08T07:30:12;3.95;;;2.75;;
27804;SDS011;15183;51.350;11.102;2023-07-08T07:32:43;2.88;;;2.13;;
27804;SDS011;15183;51.350;11.102;2023-07-08T07:35:10;2.30;;;1.98;;
27804;SDS011;15183;51.350;11.102;2023-07-08T07:37:41;2.92;;;2.38;;
27804;SDS011;15183;51.350;11.102;2023-07-08T07:40:12;5.10;;;2.00;;
27804;SDS011;15183;51.350;11.102;2023-07-08T07:42:41;5.22;;;2.88;;
27804;SDS011;15183;51.350;11.102;2023-07-08T07:45:10;3.33;;;2.28;;
27804;SDS011;15183;51.350;11.102;2023-07-08T07:47:38;2.58;;;2.38;;
27804;SDS011;15183;51.350;11.102;2023-07-08T07:50:06;3.90;;;3.15;;
27804;SDS011;15183;51.350;11.102;2023-07-08T07:52:34;4.45;;;3.92;;
27804;SDS011;15183;51.350;11.102;2023-07-08T07:55:01;3.50;;;2.72;;
27804;SDS011;15183;51.350;11.102;2023-07-08T07:57:29;2.60;;;2.40;;
27804;SDS011;15183;51.350;11.102;2023-07-08T07:59:56;3.92;;;2.88;;
27804;SDS011;15183;51.350;11.102;2023-07-08T08:02:22;3.13;;;2.53;;
27804;SDS011;15183;51.350;11.102;2023-07-08T08:04:48;2.88;;;2.33;;
27804;SDS011;15183;51.350;11.102;2023-07-08T08:07:15;5.00;;;2.30;;
27804;SDS011;15183;51.350;11.102;2023-07-08T08:09:41;3.45;;;2.58;;
27804;SDS011;15183;51.350;11.102;2023-07-08T08:12:08;5.20;;;2.47;;
27804;SDS011;15183;51.350;11.102;2023-07-08T08:14:37;5.00;;;2.63;;
27804;SDS011;15183;51.350;11.102;2023-07-08T08:17:04;2.58;;;2.38;;
27804;SDS011;15183;51.350;11.102;2023-07-08T08:19:31;2.78;;;2.47;;
27804;SDS011;15183;51.350;11.102;2023-07-08T08:21:58;2.20;;;2.00;;
27804;SDS011;15183;51.350;11.102;2023-07-08T08:24:24;2.55;;;2.10;;
27804;SDS011;15183;51.350;11.102;2023-07-08T08:26:50;2.50;;;2.10;;
27804;SDS011;15183;51.350;11.102;2023-07-08T08:29:17;2.92;;;2.15;;
27804;SDS011;15183;51.350;11.102;2023-07-08T08:31:43;2.75;;;2.10;;
27804;SDS011;15183;51.350;11.102;2023-07-08T08:34:10;3.50;;;2.35;;
27804;SDS011;15183;51.350;11.102;2023-07-08T08:36:36;2.25;;;1.92;;
27804;SDS011;15183;51.350;11.102;2023-07-08T08:39:03;3.55;;;2.00;;
27804;SDS011;15183;51.350;11.102;2023-07-08T08:41:30;2.65;;;2.00;;
27804;SDS011;15183;51.350;11.102;2023-07-08T08:44:00;2.38;;;2.17;;
27804;SDS011;15183;51.350;11.102;2023-07-08T08:52:05;2.60;;;2.35;;
27804;SDS011;15183;51.350;11.102;2023-07-08T08:54:32;1.80;;;1.63;;
27804;SDS011;15183;51.350;11.102;2023-07-08T08:57:35;3.65;;;2.33;;
27804;SDS011;15183;51.350;11.102;2023-07-08T09:00:09;2.10;;;1.48;;
27804;SDS011;15183;51.350;11.102;2023-07-08T09:02:53;2.50;;;2.22;;
27804;SDS011;15183;51.350;11.102;2023-07-08T09:05:29;2.53;;;1.65;;
27804;SDS011;15183;51.350;11.102;2023-07-08T09:13:52;1.80;;;1.70;;
27804;SDS011;15183;51.350;11.102;2023-07-08T09:16:24;2.40;;;1.83;;
27804;SDS011;15183;51.350;11.102;2023-07-08T09:19:23;4.70;;;2.17;;
27804;SDS011;15183;51.350;11.102;2023-07-08T09:22:21;1.83;;;1.65;;
27804;SDS011;15183;51.350;11.102;2023-07-08T09:24:56;2.38;;;2.10;;
27804;SDS011;15183;51.350;11.102;2023-07-08T09:27:36;2.50;;;2.13;;
27804;SDS011;15183;51.350;11.102;2023-07-08T09:30:02;3.50;;;2.20;;
27804;SDS011;15183;51.350;11.102;2023-07-08T09:32:29;6.95;;;2.47;;
27804;SDS011;15183;51.350;11.102;2023-07-08T09:35:03;2.95;;;2.17;;
27804;SDS011;15183;51.350;11.102;2023-07-08T09:37:35;3.95;;;2.15;;
27804;SDS011;15183;51.350;11.102;2023-07-08T09:40:14;2.90;;;1.80;;
27804;SDS011;15183;51.350;11.102;2023-07-08T09:43:02;3.47;;;2.33;;
27804;SDS011;15183;51.350;11.102;2023-07-08T09:45:57;2.97;;;1.83;;
27804;SDS011;15183;51.350;11.102;2023-07-08T09:48:26;3.03;;;2.30;;
27804;SDS011;15183;51.350;11.102;2023-07-08T09:50:56;2.28;;;2.08;;
27804;SDS011;15183;51.350;11.102;2023-07-08T09:53:24;2.40;;;2.03;;
27804;SDS011;15183;51.350;11.102;2023-07-08T09:55:52;3.10;;;2.10;;
27804;SDS011;15183;51.350;11.102;2023-07-08T09:58:27;2.63;;;2.00;;
27804;SDS011;15183;51.350;11.102;2023-07-08T10:01:15;2.88;;;2.13;;
27804;SDS011;15183;51.350;11.102;2023-07-08T10:03:51;3.50;;;2.35;;
27804;SDS011;15183;51.350;11.102;2023-07-08T10:06:27;2.38;;;2.10;;
27804;SDS011;15183;51.350;11.102;2023-07-08T10:09:02;1.70;;;1.60;;
27804;SDS011;15183;51.350;11.102;2023-07-08T10:11:43;3.92;;;2.22;;
27804;SDS011;15183;51.350;11.102;2023-07-08T10:14:20;2.85;;;2.13;;
27804;SDS011;15183;51.350;11.102;2023-07-08T10:16:57;2.35;;;1.90;;
27804;SDS011;15183;51.350;11.102;2023-07-08T10:19:24;6.93;;;2.95;;
27804;SDS011;15183;51.350;11.102;2023-07-08T10:31:10;1.92;;;1.80;;
27804;SDS011;15183;51.350;11.102;2023-07-08T10:33:59;2.33;;;2.13;;
27804;SDS011;15183;51.350;11.102;2023-07-08T10:37:04;2.00;;;1.77;;
27804;SDS011;15183;51.350;11.102;2023-07-08T10:40:07;2.78;;;2.40;;
27804;SDS011;15183;51.350;11.102;2023-07-08T10:45:53;2.05;;;1.85;;
27804;SDS011;15183;51.350;11.102;2023-07-08T10:57:46;2.55;;;2.00;;
27804;SDS011;15183;51.350;11.102;2023-07-08T11:06:16;1.80;;;1.70;;
27804;SDS011;15183;51.350;11.102;2023-07-08T11:08:54;1.98;;;1.88;;
27804;SDS011;15183;51.350;11.102;2023-07-08T11:11:39;3.35;;;2.10;;
27804;SDS011;15183;51.350;11.102;2023-07-08T11:14:24;3.05;;;2.10;;
27804;SDS011;15183;51.350;11.102;2023-07-08T11:17:14;3.22;;;2.47;;
27804;SDS011;15183;51.350;11.102;2023-07-08T11:19:51;5.68;;;2.50;;
27804;SDS011;15183;51.350;11.102;2023-07-08T11:22:41;2.75;;;2.15;;
27804;SDS011;15183;51.350;11.102;2023-07-08T11:25:41;2.67;;;1.88;;
27804;SDS011;15183;51.350;11.102;2023-07-08T11:28:12;2.22;;;2.03;;
27804;SDS011;15183;51.350;11.102;2023-07-08T11:30:43;2.40;;;2.20;;
27804;SDS011;15183;51.350;11.102;2023-07-08T11:33:13;1.80;;;1.70;;
27804;SDS011;15183;51.350;11.102;2023-07-08T11:35:51;3.30;;;2.20;;
27804;SDS011;15183;51.350;11.102;2023-07-08T11:38:24;2.58;;;2.33;;
27804;SDS011;15183;51.350;11.102;2023-07-08T11:40:56;3.08;;;2.42;;
27804;SDS011;15183;51.350;11.102;2023-07-08T11:43:58;1.95;;;1.80;;
27804;SDS011;15183;51.350;11.102;2023-07-08T11:46:32;2.88;;;2.03;;
27804;SDS011;15183;51.350;11.102;2023-07-08T11:49:01;2.25;;;2.05;;
27804;SDS011;15183;51.350;11.102;2023-07-08T11:51:38;3.78;;;2.35;;
27804;SDS011;15183;51.350;11.102;2023-07-08T11:54:19;2.00;;;1.90;;
27804;SDS011;15183;51.350;11.102;2023-07-08T11:56:59;1.77;;;1.67;;
27804;SDS011;15183;51.350;11.102;2023-07-08T11:59:32;1.55;;;1.45;;
27804;SDS011;15183;51.350;11.102;2023-07-08T12:02:04;3.17;;;1.85;;
27804;SDS011;15183;51.350;11.102;2023-07-08T12:04:57;2.80;;;2.47;;
27804;SDS011;15183;51.350;11.102;2023-07-08T12:10:34;2.33;;;2.10;;
27804;SDS011;15183;51.350;11.102;2023-07-08T12:13:13;2.47;;;1.90;;
27804;SDS011;15183;51.350;11.102;2023-07-08T12:15:43;4.00;;;2.42;;
27804;SDS011;15183;51.350;11.102;2023-07-08T12:18:14;2.80;;;2.17;;
27804;SDS011;15183;51.350;11.102;2023-07-08T12:20:43;2.00;;;1.90;;
27804;SDS011;15183;51.350;11.102;2023-07-08T12:23:19;1.85;;;1.75;;
27804;SDS011;15183;51.350;11.102;2023-07-08T12:25:48;2.20;;;2.00;;
27804;SDS011;15183;51.350;11.102;2023-07-08T12:28:15;2.00;;;1.90;;
27804;SDS011;15183;51.350;11.102;2023-07-08T12:30:43;3.78;;;1.98;;
27804;SDS011;15183;51.350;11.102;2023-07-08T12:33:13;2.47;;;2.15;;
27804;SDS011;15183;51.350;11.102;2023-07-08T12:35:54;2.10;;;1.90;;
27804;SDS011;15183;51.350;11.102;2023-07-08T12:38:29;2.00;;;1.90;;
27804;SDS011;15183;51.350;11.102;2023-07-08T12:40:58;2.75;;;2.22;;
27804;SDS011;15183;51.350;11.102;2023-07-08T12:43:28;3.00;;;2.35;;
27804;SDS011;15183;51.350;11.102;2023-07-08T12:45:54;2.55;;;2.08;;
27804;SDS011;15183;51.350;11.102;2023-07-08T12:48:21;3.15;;;2.30;;
27804;SDS011;15183;51.350;11.102;2023-07-08T12:50:47;1.90;;;1.80;;
27804;SDS011;15183;51.350;11.102;2023-07-08T12:53:15;2.25;;;1.70;;
27804;SDS011;15183;51.350;11.102;2023-07-08T12:55:42;2.03;;;1.92;;
27804;SDS011;15183;51.350;11.102;2023-07-08T12:58:15;3.50;;;2.08;;
27804;SDS011;15183;51.350;11.102;2023-07-08T13:00:54;2.47;;;2.28;;
27804;SDS011;15183;51.350;11.102;2023-07-08T13:03:23;6.43;;;2.58;;
27804;SDS011;15183;51.350;11.102;2023-07-08T13:05:53;3.20;;;2.28;;
27804;SDS011;15183;51.350;11.102;2023-07-08T13:08:23;2.90;;;2.50;;
27804;SDS011;15183;51.350;11.102;2023-07-08T13:10:55;2.30;;;2.13;;
27804;SDS011;15183;51.350;11.102;2023-07-08T13:13:25;2.45;;;2.25;;
27804;SDS011;15183;51.350;11.102;2023-07-08T13:15:56;2.10;;;2.00;;
27804;SDS011;15183;51.350;11.102;2023-07-08T13:21:01;2.63;;;2.42;;
27804;SDS011;15183;51.350;11.102;2023-07-08T13:23:30;2.97;;;2.45;;
27804;SDS011;15183;51.350;11.102;2023-07-08T13:25:57;3.88;;;2.30;;
27804;SDS011;15183;51.350;11.102;2023-07-08T13:28:43;2.83;;;2.53;;
27804;SDS011;15183;51.350;11.102;2023-07-08T13:31:13;3.58;;;2.42;;
27804;SDS011;15183;51.350;11.102;2023-07-08T13:33:52;9.45;;;2.60;;
27804;SDS011;15183;51.350;11.102;2023-07-08T13:36:31;2.63;;;2.42;;
27804;SDS011;15183;51.350;11.102;2023-07-08T13:39:14;2.67;;;2.47;;
27804;SDS011;15183;51.350;11.102;2023-07-08T13:41:59;2.83;;;2.00;;
27804;SDS011;15183;51.350;11.102;2023-07-08T13:44:26;2.83;;;2.63;;
27804;SDS011;15183;51.350;11.102;2023-07-08T13:46:54;3.47;;;2.35;;
27804;SDS011;15183;51.350;11.102;2023-07-08T13:54:39;2.55;;;2.30;;
27804;SDS011;15183;51.350;11.102;2023-07-08T13:57:36;4.93;;;2.50;;
27804;SDS011;15183;51.350;11.102;2023-07-08T14:00:05;2.15;;;2.05;;
27804;SDS011;15183;51.350;11.102;2023-07-08T14:02:35;2.53;;;2.33;;
27804;SDS011;15183;51.350;11.102;2023-07-08T14:05:04;2.40;;;2.03;;
27804;SDS011;15183;51.350;11.102;2023-07-08T14:07:37;2.50;;;2.30;;
27804;SDS011;15183;51.350;11.102;2023-07-08T14:10:09;3.40;;;2.42;;
27804;SDS011;15183;51.350;11.102;2023-07-08T14:12:38;3.10;;;2.80;;
27804;SDS011;15183;51.350;11.102;2023-07-08T14:15:05;6.15;;;2.80;;
27804;SDS011;15183;51.350;11.102;2023-07-08T14:17:32;2.38;;;2.15;;
27804;SDS011;15183;51.350;11.102;2023-07-08T14:19:58;2.45;;;2.25;;
27804;SDS011;15183;51.350;11.102;2023-07-08T14:22:26;2.55;;;2.35;;
27804;SDS011;15183;51.350;11.102;2023-07-08T14:24:56;2.35;;;2.15;;
27804;SDS011;15183;51.350;11.102;2023-07-08T14:27:32;2.60;;;2.40;;
27804;SDS011;15183;51.350;11.102;2023-07-08T14:29:59;2.50;;;2.28;;
27804;SDS011;15183;51.350;11.102;2023-07-08T14:32:26;6.60;;;2.85;;
27804;SDS011;15183;51.350;11.102;2023-07-08T14:34:57;2.83;;;2.30;;
27804;SDS011;15183;51.350;11.102;2023-07-08T14:37:35;3.00;;;2.70;;
27804;SDS011;15183;51.350;11.102;2023-07-08T14:40:09;2.75;;;2.25;;
27804;SDS011;15183;51.350;11.102;2023-07-08T14:42:45;3.40;;;2.47;;
27804;SDS011;15183;51.350;11.102;2023-07-08T14:45:12;4.80;;;2.38;;
27804;SDS011;15183;51.350;11.102;2023-07-08T14:47:38;2.67;;;2.33;;
27804;SDS011;15183;51.350;11.102;2023-07-08T14:50:14;2.60;;;2.40;;
27804;SDS011;15183;51.350;11.102;2023-07-08T14:52:41;2.78;;;2.42;;
27804;SDS011;15183;51.350;11.102;2023-07-08T14:55:08;2.60;;;2.40;;
27804;SDS011;15183;51.350;11.102;2023-07-08T14:57:40;2.85;;;2.33;;
27804;SDS011;15183;51.350;11.102;2023-07-08T15:00:13;2.42;;;2.22;;
27804;SDS011;15183;51.350;11.102;2023-07-08T15:02:43;2.72;;;2.10;;
27804;SDS011;15183;51.350;11.102;2023-07-08T15:05:22;2.35;;;2.10;;
27804;SDS011;15183;51.350;11.102;2023-07-08T15:07:54;2.33;;;2.13;;
27804;SDS011;15183;51.350;11.102;2023-07-08T15:10:26;2.33;;;2.15;;
27804;SDS011;15183;51.350;11.102;2023-07-08T15:12:55;2.17;;;1.90;;
27804;SDS011;15183;51.350;11.102;2023-07-08T15:15:29;2.90;;;2.65;;
27804;SDS011;15183;51.350;11.102;2023-07-08T15:17:58;3.00;;;2.28;;
27804;SDS011;15183;51.350;11.102;2023-07-08T15:20:27;2.08;;;1.88;;
27804;SDS011;15183;51.350;11.102;2023-07-08T15:22:54;2.45;;;2.25;;
27804;SDS011;15183;51.350;11.102;2023-07-08T15:25:21;4.57;;;3.00;;
27804;SDS011;15183;51.350;11.102;2023-07-08T15:27:48;2.70;;;2.42;;
27804;SDS011;15183;51.350;11.102;2023-07-08T15:30:20;2.63;;;2.42;;
27804;SDS011;15183;51.350;11.102;2023-07-08T15:32:52;3.63;;;2.10;;
27804;SDS011;15183;51.350;11.102;2023-07-08T15:35:20;2.80;;;2.42;;
27804;SDS011;15183;51.350;11.102;2023-07-08T15:37:55;3.03;;;2.25;;
27804;SDS011;15183;51.350;11.102;2023-07-08T15:40:22;4.05;;;2.20;;
27804;SDS011;15183;51.350;11.102;2023-07-08T15:42:51;2.63;;;2.42;;
27804;SDS011;15183;51.350;11.102;2023-07-08T15:45:23;4.20;;;2.10;;
27804;SDS011;15183;51.350;11.102;2023-07-08T15:47:53;2.88;;;2.35;;
27804;SDS011;15183;51.350;11.102;2023-07-08T15:50:24;2.75;;;2.17;;
27804;SDS011;15183;51.350;11.102;2023-07-08T15:52:52;4.28;;;2.88;;